createdAt,value
2023-01-29T00:01:48.142Z,102155.25
2023-01-29T00:04:15.245Z,102155.50
2023-01-29T00:06:42.072Z,102156.41
2023-01-29T00:09:09.378Z,102155.31
2023-01-29T00:11:36.060Z,102154.69
2023-01-29T00:14:02.592Z,102150.75
2023-01-29T00:16:29.520Z,102147.47
2023-01-29T00:18:55.947Z,102137.84
2023-01-29T00:21:23.044Z,102140.84
2023-01-29T00:23:50.424Z,102138.38
2023-01-29T00:26:17.060Z,102142.47
2023-01-29T00:28:44.074Z,102127.72
2023-01-29T00:31:16.103Z,102127.28
2023-01-29T00:33:42.879Z,102122.81
2023-01-29T00:36:11.610Z,102123.38
2023-01-29T00:38:39.532Z,102122.97
2023-01-29T00:41:28.685Z,102123.81
2023-01-29T00:44:13.991Z,102112.53
2023-01-29T00:46:40.564Z,102102.78
2023-01-29T00:49:07.812Z,102104.19
2023-01-29T00:51:35.612Z,102101.38
2023-01-29T00:54:06.702Z,102099.06
2023-01-29T00:56:35.851Z,102088.16
2023-01-29T00:59:04.123Z,102089.88
2023-01-29T01:01:49.492Z,102087.06
2023-01-29T01:04:16.032Z,102086.41
2023-01-29T01:06:43.396Z,102090.13
2023-01-29T01:09:29.554Z,102074.00
2023-01-29T01:11:56.819Z,102082.94
2023-01-29T01:14:23.394Z,102084.78
2023-01-29T01:16:49.927Z,102091.44
2023-01-29T01:19:16.791Z,102098.66
2023-01-29T01:21:45.431Z,102086.50
2023-01-29T01:24:13.097Z,102091.19
2023-01-29T01:26:39.830Z,102087.91
2023-01-29T01:29:06.456Z,102086.44
2023-01-29T01:31:32.894Z,102084.69
2023-01-29T01:33:59.485Z,102089.00
2023-01-29T01:36:25.974Z,102087.34
2023-01-29T01:38:52.402Z,102095.50
2023-01-29T01:41:21.866Z,102093.34
2023-01-29T01:44:01.489Z,102101.44
2023-01-29T01:46:31.427Z,102102.34
2023-01-29T01:49:16.129Z,102097.41
2023-01-29T01:51:50.703Z,102094.31
2023-01-29T01:54:23.824Z,102094.66
2023-01-29T01:56:55.859Z,102105.81
2023-01-29T01:59:23.844Z,102098.13
2023-01-29T02:01:53.965Z,102090.44
2023-01-29T02:04:42.511Z,102095.88
2023-01-29T02:07:32.603Z,102087.59
2023-01-29T02:10:16.880Z,102093.56
2023-01-29T02:12:45.753Z,102090.84
2023-01-29T02:15:13.267Z,102093.22
2023-01-29T02:17:40.015Z,102088.00
2023-01-29T02:20:15.968Z,102080.75
2023-01-29T02:22:56.071Z,102083.06
2023-01-29T02:25:50.664Z,102072.03
2023-01-29T02:28:43.251Z,102079.94
2023-01-29T02:31:35.485Z,102081.78
2023-01-29T02:34:51.730Z,102072.81
2023-01-29T02:37:25.663Z,102074.81
2023-01-29T02:39:57.192Z,102077.06
2023-01-29T02:42:39.164Z,102073.31
2023-01-29T02:45:12.291Z,102072.56
2023-01-29T02:48:05.574Z,102081.00
2023-01-29T02:50:45.390Z,102067.13
2023-01-29T02:53:41.127Z,102073.78
2023-01-29T02:56:15.639Z,102067.94
2023-01-29T02:58:46.000Z,102073.50
2023-01-29T03:01:18.798Z,102084.19
2023-01-29T03:03:50.160Z,102091.13
2023-01-29T03:06:46.475Z,102092.66
2023-01-29T03:09:21.932Z,102091.41
2023-01-29T03:11:58.665Z,102085.03
2023-01-29T03:14:52.916Z,102085.63
2023-01-29T03:17:25.426Z,102088.50
2023-01-29T03:19:52.471Z,102091.94
2023-01-29T03:22:23.158Z,102095.00
2023-01-29T03:25:15.614Z,102087.22
2023-01-29T03:28:09.519Z,102106.78
2023-01-29T03:31:09.357Z,102097.91
2023-01-29T03:33:44.297Z,102101.22
2023-01-29T03:36:18.583Z,102104.91
2023-01-29T03:38:48.995Z,102118.28
2023-01-29T03:41:28.687Z,102122.78
2023-01-29T03:44:02.425Z,102125.88
2023-01-29T03:46:34.638Z,102138.41
2023-01-29T03:49:15.942Z,102140.88
2023-01-29T03:51:48.432Z,102145.53
2023-01-29T03:54:44.256Z,102134.59
2023-01-29T03:57:27.151Z,102134.75
2023-01-29T04:00:02.148Z,102125.88
2023-01-29T04:02:35.705Z,102114.22
2023-01-29T04:05:10.953Z,102098.34
2023-01-29T04:07:40.543Z,102090.91
2023-01-29T04:10:17.101Z,102079.81
2023-01-29T04:12:53.718Z,102076.47
2023-01-29T04:15:23.128Z,102080.50
2023-01-29T04:17:52.722Z,102077.81
2023-01-29T04:20:20.797Z,102074.19
2023-01-29T04:22:50.355Z,102071.34
2023-01-29T04:25:26.858Z,102067.84
2023-01-29T04:28:05.779Z,102061.31
2023-01-29T04:30:56.552Z,102079.66
2023-01-29T04:33:40.343Z,102085.25
2023-01-29T04:36:20.738Z,102077.88
2023-01-29T04:39:17.990Z,102076.03
2023-01-29T04:41:54.421Z,102074.72
2023-01-29T04:44:24.459Z,102076.88
2023-01-29T04:47:20.155Z,102071.78
2023-01-29T04:49:58.977Z,102072.84
2023-01-29T04:52:46.967Z,102064.75
2023-01-29T04:55:35.973Z,102061.28
2023-01-29T04:58:12.655Z,102078.06
2023-01-29T05:00:44.357Z,102072.28
2023-01-29T05:03:13.348Z,102074.00
2023-01-29T05:05:42.951Z,102063.94
2023-01-29T05:08:13.449Z,102062.09
2023-01-29T05:10:40.145Z,102061.78
2023-01-29T05:13:11.591Z,102078.09
2023-01-29T05:15:41.838Z,102082.53
2023-01-29T05:18:09.028Z,102087.09
2023-01-29T05:20:39.124Z,102079.97
2023-01-29T05:23:18.623Z,102074.19
2023-01-29T05:25:46.351Z,102065.47
2023-01-29T05:28:17.190Z,102072.66
2023-01-29T05:30:46.478Z,102078.19
2023-01-29T05:33:19.068Z,102072.66
2023-01-29T05:35:46.564Z,102073.28
2023-01-29T05:38:13.351Z,102070.97
2023-01-29T05:40:40.221Z,102066.34
2023-01-29T05:43:15.381Z,102065.75
2023-01-29T05:45:42.155Z,102061.56
2023-01-29T05:48:09.185Z,102060.28
2023-01-29T05:50:35.664Z,102050.44
2023-01-29T05:53:02.411Z,102038.25
2023-01-29T05:55:31.958Z,102043.44
2023-01-29T05:57:58.683Z,102031.53
2023-01-29T06:00:25.594Z,102024.34
2023-01-29T06:02:52.785Z,102033.56
2023-01-29T06:05:19.267Z,102047.28
2023-01-29T06:07:46.961Z,102052.25
2023-01-29T06:10:15.649Z,102048.91
2023-01-29T06:12:43.584Z,102057.19
2023-01-29T06:15:11.159Z,102040.47
2023-01-29T06:17:37.804Z,102033.13
2023-01-29T06:20:05.378Z,102035.72
2023-01-29T06:22:33.091Z,102047.59
2023-01-29T06:24:59.975Z,102051.34
2023-01-29T06:27:26.678Z,102061.19
2023-01-29T06:29:53.390Z,102061.41
2023-01-29T06:32:19.995Z,102061.63
2023-01-29T06:34:48.716Z,102058.41
2023-01-29T06:37:16.392Z,102056.00
2023-01-29T06:39:42.822Z,102047.81
2023-01-29T06:42:09.980Z,102043.16
2023-01-29T06:44:36.901Z,102055.09
2023-01-29T06:47:03.834Z,102051.38
2023-01-29T06:49:30.998Z,102046.22
2023-01-29T06:51:57.727Z,102054.53
2023-01-29T06:54:26.209Z,102056.88
2023-01-29T06:56:53.307Z,102054.22
2023-01-29T06:59:20.078Z,102055.94
2023-01-29T07:01:46.768Z,102054.22
2023-01-29T07:04:13.676Z,102062.91
2023-01-29T07:06:40.156Z,102074.09
2023-01-29T07:09:07.002Z,102082.28
2023-01-29T07:11:37.855Z,102098.75
2023-01-29T07:14:04.494Z,102102.16
2023-01-29T07:16:31.371Z,102105.19
2023-01-29T07:18:58.174Z,102100.34
2023-01-29T07:21:25.060Z,102105.16
2023-01-29T07:23:51.526Z,102107.31
2023-01-29T07:26:18.717Z,102101.53
2023-01-29T07:28:45.088Z,102099.28
2023-01-29T07:31:13.864Z,102095.22
2023-01-29T07:33:43.795Z,102101.56
2023-01-29T07:36:11.570Z,102090.63
2023-01-29T07:38:38.126Z,102085.31
2023-01-29T07:41:04.861Z,102081.28
2023-01-29T07:43:31.487Z,102082.69
2023-01-29T07:46:02.380Z,102076.44
2023-01-29T07:48:28.986Z,102091.78
2023-01-29T07:50:57.403Z,102099.59
2023-01-29T07:53:23.969Z,102097.88
2023-01-29T07:55:51.468Z,102097.09
2023-01-29T07:58:18.366Z,102101.81
2023-01-29T08:00:45.211Z,102111.94
2023-01-29T08:03:17.575Z,102099.22
2023-01-29T08:05:44.811Z,102093.94
2023-01-29T08:08:11.470Z,102089.31
2023-01-29T08:10:39.516Z,102082.22
2023-01-29T08:13:07.340Z,102088.72
2023-01-29T08:15:37.086Z,102087.47
2023-01-29T08:18:04.778Z,102086.06
2023-01-29T08:20:31.461Z,102087.25
2023-01-29T08:23:02.759Z,102090.63
2023-01-29T08:25:29.452Z,102088.38
2023-01-29T08:27:57.909Z,102085.16
2023-01-29T08:30:30.245Z,102081.34
2023-01-29T08:32:57.130Z,102076.50
2023-01-29T08:35:24.442Z,102078.22
2023-01-29T08:37:54.566Z,102074.28
2023-01-29T08:40:21.527Z,102092.16
2023-01-29T08:42:48.115Z,102091.88
2023-01-29T08:45:14.680Z,102086.59
2023-01-29T08:47:49.049Z,102089.13
2023-01-29T08:50:17.638Z,102088.06
2023-01-29T08:52:45.689Z,102094.47
2023-01-29T08:55:12.307Z,102101.63
2023-01-29T08:57:39.400Z,102101.03
2023-01-29T09:00:07.696Z,102093.94
2023-01-29T09:02:34.971Z,102080.88
2023-01-29T09:05:01.499Z,102086.25
2023-01-29T09:07:29.250Z,102094.84
2023-01-29T09:09:55.875Z,102094.69
2023-01-29T09:12:22.547Z,102097.91
2023-01-29T09:14:49.237Z,102086.88
2023-01-29T09:17:15.853Z,102094.47
2023-01-29T09:19:42.305Z,102098.66
2023-01-29T09:22:10.943Z,102093.94
2023-01-29T09:24:38.307Z,102092.16
2023-01-29T09:27:06.023Z,102088.88
2023-01-29T09:29:35.431Z,102074.66
2023-01-29T09:32:04.581Z,102076.97
2023-01-29T09:34:31.173Z,102078.94
2023-01-29T09:36:58.373Z,102091.69
2023-01-29T09:39:25.475Z,102095.25
2023-01-29T09:41:58.392Z,102102.16
2023-01-29T09:44:43.545Z,102097.63
2023-01-29T09:47:13.772Z,102078.53
2023-01-29T09:49:45.832Z,102063.75
2023-01-29T09:52:20.262Z,102055.84
2023-01-29T09:55:05.972Z,102055.84
2023-01-29T09:57:54.143Z,102052.25
2023-01-29T10:00:37.405Z,102045.13
2023-01-29T10:03:32.017Z,102038.47
2023-01-29T10:06:08.040Z,102033.53
2023-01-29T10:08:47.033Z,102034.66
2023-01-29T10:11:26.927Z,102029.69
2023-01-29T10:14:22.704Z,102039.53
2023-01-29T10:17:07.449Z,102039.59
2023-01-29T10:19:52.626Z,102032.47
2023-01-29T10:22:39.624Z,102031.63
2023-01-29T10:25:11.445Z,102018.75
2023-01-29T10:27:41.159Z,102011.91
2023-01-29T10:30:20.385Z,102008.31
2023-01-29T10:32:49.206Z,102003.91
2023-01-29T10:35:34.291Z,102001.44
2023-01-29T10:38:18.620Z,102008.84
2023-01-29T10:40:55.647Z,101997.63
2023-01-29T10:43:37.257Z,102000.09
2023-01-29T10:46:18.129Z,102008.56
2023-01-29T10:48:57.209Z,101993.78
2023-01-29T10:51:35.904Z,101991.03
2023-01-29T10:54:19.607Z,101989.94
2023-01-29T10:56:55.903Z,101979.22
2023-01-29T10:59:48.833Z,101968.50
2023-01-29T11:02:18.550Z,101965.47
2023-01-29T11:04:45.753Z,101964.88
2023-01-29T11:07:14.704Z,101968.66
2023-01-29T11:09:56.255Z,101962.81
2023-01-29T11:12:30.308Z,101951.25
2023-01-29T11:15:04.929Z,101944.94
2023-01-29T11:17:31.532Z,101950.50
2023-01-29T11:19:58.559Z,101945.59
2023-01-29T11:22:27.443Z,101937.91
2023-01-29T11:25:21.831Z,101937.13
2023-01-29T11:28:02.873Z,101915.59
2023-01-29T11:30:37.310Z,101918.50
2023-01-29T11:33:23.637Z,101903.31
2023-01-29T11:35:52.441Z,101907.72
2023-01-29T11:38:25.704Z,101898.09
2023-01-29T11:40:53.274Z,101913.84
2023-01-29T11:43:22.530Z,101906.81
2023-01-29T11:45:56.003Z,101905.50
2023-01-29T11:48:32.172Z,101890.66
2023-01-29T11:51:00.692Z,101898.16
2023-01-29T11:53:36.977Z,101894.44
2023-01-29T11:56:06.930Z,101884.38
2023-01-29T11:58:35.799Z,101874.38
2023-01-29T12:01:03.783Z,101872.72
2023-01-29T12:03:40.109Z,101874.72
2023-01-29T12:06:21.493Z,101858.03
2023-01-29T12:08:58.742Z,101855.78
2023-01-29T12:11:31.748Z,101854.41
2023-01-29T12:14:01.020Z,101848.00
2023-01-29T12:16:38.137Z,101843.28
2023-01-29T12:19:38.229Z,101834.22
2023-01-29T12:22:28.663Z,101835.28
2023-01-29T12:24:55.119Z,101826.06
2023-01-29T12:27:46.408Z,101822.06
2023-01-29T12:30:21.608Z,101816.25
2023-01-29T12:32:56.504Z,101823.13
2023-01-29T12:35:28.432Z,101827.16
2023-01-29T12:38:02.493Z,101823.44
2023-01-29T12:40:38.559Z,101816.22
2023-01-29T12:43:15.246Z,101815.34
2023-01-29T12:45:47.996Z,101811.84
2023-01-29T12:51:38.669Z,101801.41
2023-01-29T12:54:12.555Z,101796.53
2023-01-29T12:56:47.012Z,101786.25
2023-01-29T12:59:36.339Z,101782.13
2023-01-29T13:02:20.518Z,101769.38
2023-01-29T13:05:03.904Z,101762.53
2023-01-29T13:07:36.011Z,101757.69
2023-01-29T13:10:13.734Z,101747.91
2023-01-29T13:12:51.707Z,101740.78
2023-01-29T13:15:31.240Z,101741.38
2023-01-29T13:18:30.781Z,101740.09
2023-01-29T13:21:00.180Z,101729.31
2023-01-29T13:23:36.233Z,101735.03
2023-01-29T13:26:03.785Z,101731.53
2023-01-29T13:28:30.573Z,101736.81
2023-01-29T13:31:35.834Z,101736.91
2023-01-29T13:34:31.514Z,101725.72
2023-01-29T13:37:00.988Z,101724.72
2023-01-29T13:39:34.367Z,101719.31
2023-01-29T13:42:14.701Z,101720.78
2023-01-29T13:44:41.446Z,101716.56
2023-01-29T13:47:11.232Z,101719.84
2023-01-29T13:49:59.507Z,101712.16
2023-01-29T13:52:37.143Z,101702.16
2023-01-29T13:55:15.220Z,101705.59
2023-01-29T13:57:48.726Z,101700.50
2023-01-29T14:00:21.188Z,101694.25
2023-01-29T14:03:13.547Z,101686.09
2023-01-29T14:05:58.425Z,101682.97
2023-01-29T14:08:34.171Z,101671.84
2023-01-29T14:11:16.914Z,101674.59
2023-01-29T14:13:47.069Z,101663.66
2023-01-29T14:16:13.524Z,101664.72
2023-01-29T14:18:47.876Z,101656.72
2023-01-29T14:21:14.380Z,101661.34
2023-01-29T14:23:49.753Z,101645.41
2023-01-29T14:26:32.243Z,101640.34
2023-01-29T14:29:18.772Z,101647.13
2023-01-29T14:32:21.256Z,101643.03
2023-01-29T14:34:50.810Z,101637.34
2023-01-29T14:37:28.178Z,101642.72
2023-01-29T14:39:58.219Z,101632.91
2023-01-29T14:42:29.579Z,101634.22
2023-01-29T14:45:25.995Z,101638.94
2023-01-29T14:48:02.217Z,101643.84
2023-01-29T14:50:28.874Z,101649.28
2023-01-29T14:53:19.591Z,101654.38
2023-01-29T14:56:12.426Z,101649.06
2023-01-29T14:58:51.881Z,101655.84
2023-01-29T15:01:26.728Z,101654.19
2023-01-29T15:04:02.586Z,101661.34
2023-01-29T15:06:41.323Z,101665.47
2023-01-29T15:09:36.388Z,101661.41
2023-01-29T15:12:23.030Z,101666.56
2023-01-29T15:15:01.849Z,101660.66
2023-01-29T15:17:32.812Z,101658.94
2023-01-29T15:19:59.554Z,101661.81
2023-01-29T15:22:28.947Z,101661.75
2023-01-29T15:25:07.308Z,101664.13
2023-01-29T15:27:34.247Z,101658.16
2023-01-29T15:30:04.381Z,101660.28
2023-01-29T15:32:37.228Z,101660.41
2023-01-29T15:35:19.815Z,101665.69
2023-01-29T15:37:59.122Z,101662.34
2023-01-29T15:40:26.889Z,101664.91
2023-01-29T15:42:53.869Z,101663.81
2023-01-29T15:45:32.219Z,101660.72
2023-01-29T15:48:13.828Z,101650.06
2023-01-29T15:50:42.288Z,101655.91
2023-01-29T15:53:15.852Z,101660.84
2023-01-29T15:55:43.634Z,101647.13
2023-01-29T15:58:18.807Z,101663.97
2023-01-29T16:00:55.512Z,101661.72
2023-01-29T16:03:25.474Z,101653.31
2023-01-29T16:05:52.642Z,101661.09
2023-01-29T16:08:21.818Z,101666.88
2023-01-29T16:10:53.617Z,101674.00
2023-01-29T16:13:25.731Z,101674.88
2023-01-29T16:16:07.504Z,101672.59
2023-01-29T16:18:42.825Z,101670.94
2023-01-29T16:21:17.253Z,101663.47
2023-01-29T16:23:49.812Z,101664.31
2023-01-29T16:26:21.662Z,101667.09
2023-01-29T16:28:48.386Z,101665.25
2023-01-29T16:31:23.669Z,101667.59
2023-01-29T16:33:50.388Z,101667.59
2023-01-29T16:36:21.676Z,101665.38
2023-01-29T16:39:00.977Z,101664.66
2023-01-29T16:41:33.146Z,101651.69
2023-01-29T16:44:12.939Z,101660.53
2023-01-29T16:46:48.008Z,101658.56
2023-01-29T16:49:40.434Z,101651.19
2023-01-29T16:52:19.291Z,101659.56
2023-01-29T16:54:46.713Z,101655.53
2023-01-29T16:57:18.141Z,101664.38
2023-01-29T16:59:45.891Z,101656.47
2023-01-29T17:02:23.096Z,101657.00
2023-01-29T17:04:52.446Z,101661.69
2023-01-29T17:07:22.317Z,101658.63
2023-01-29T17:09:54.056Z,101649.81
2023-01-29T17:12:26.396Z,101651.78
2023-01-29T17:15:05.888Z,101653.78
2023-01-29T17:17:35.748Z,101653.09
2023-01-29T17:20:16.484Z,101650.91
2023-01-29T17:22:44.688Z,101649.94
2023-01-29T17:25:14.199Z,101656.03
2023-01-29T17:27:45.199Z,101659.97
2023-01-29T17:30:16.562Z,101658.81
2023-01-29T17:32:47.347Z,101657.41
2023-01-29T17:35:17.026Z,101667.84
2023-01-29T17:37:44.959Z,101666.03
2023-01-29T17:40:47.360Z,101672.59
2023-01-29T17:43:13.903Z,101662.16
2023-01-29T17:45:40.717Z,101664.38
2023-01-29T17:48:15.361Z,101664.88
2023-01-29T17:50:48.325Z,101651.75
2023-01-29T17:53:17.859Z,101652.25
2023-01-29T17:55:45.022Z,101657.22
2023-01-29T17:58:19.292Z,101651.94
2023-01-29T18:00:46.825Z,101656.06
2023-01-29T18:03:13.487Z,101655.28
2023-01-29T18:05:42.429Z,101648.38
2023-01-29T18:08:22.190Z,101628.63
2023-01-29T18:10:48.669Z,101620.22
2023-01-29T18:13:15.353Z,101617.69
2023-01-29T18:15:43.074Z,101613.84
2023-01-29T18:18:14.034Z,101608.69
2023-01-29T18:20:40.642Z,101600.34
2023-01-29T18:23:08.376Z,101600.59
2023-01-29T18:25:35.241Z,101596.97
2023-01-29T18:28:02.460Z,101600.09
2023-01-29T18:30:31.505Z,101601.78
2023-01-29T18:32:58.093Z,101591.53
2023-01-29T18:35:27.159Z,101591.28
2023-01-29T18:37:54.032Z,101589.13
2023-01-29T18:40:20.795Z,101580.34
2023-01-29T18:42:47.470Z,101585.19
2023-01-29T18:45:15.247Z,101574.69
2023-01-29T18:47:42.671Z,101575.78
2023-01-29T18:50:11.676Z,101578.13
2023-01-29T18:52:38.853Z,101578.38
2023-01-29T18:55:06.143Z,101576.91
2023-01-29T18:58:31.048Z,101580.50
2023-01-29T19:00:20.511Z,101580.53
2023-01-29T19:02:46.921Z,101573.66
2023-01-29T19:05:13.389Z,101579.22
2023-01-29T19:07:41.262Z,101572.78
2023-01-29T19:10:12.406Z,101565.97
2023-01-29T19:12:42.210Z,101555.47
2023-01-29T19:15:09.733Z,101548.34
2023-01-29T19:17:37.938Z,101540.66
2023-01-29T19:20:04.723Z,101531.09
2023-01-29T19:22:32.320Z,101526.22
2023-01-29T19:24:59.094Z,101529.19
2023-01-29T19:27:30.144Z,101519.25
2023-01-29T19:29:58.079Z,101517.19
2023-01-29T19:32:24.669Z,101504.06
2023-01-29T19:34:52.161Z,101505.47
2023-01-29T19:37:18.575Z,101507.63
2023-01-29T19:39:45.075Z,101503.19
2023-01-29T19:42:11.530Z,101496.34
2023-01-29T19:44:56.273Z,101488.44
2023-01-29T19:47:23.158Z,101495.03
2023-01-29T19:49:50.595Z,101491.19
2023-01-29T19:52:51.254Z,101481.25
2023-01-29T19:55:19.948Z,101481.31
2023-01-29T19:57:47.432Z,101472.97
2023-01-29T20:00:15.467Z,101463.66
2023-01-29T20:02:42.508Z,101463.72
2023-01-29T20:05:11.949Z,101462.94
2023-01-29T20:07:42.383Z,101456.63
2023-01-29T20:10:16.839Z,101457.16
2023-01-29T20:12:45.735Z,101456.00
2023-01-29T20:15:13.944Z,101450.22
2023-01-29T20:17:40.520Z,101451.91
2023-01-29T20:20:08.444Z,101448.63
2023-01-29T20:22:35.924Z,101453.31
2023-01-29T20:25:02.532Z,101451.31
2023-01-29T20:27:29.221Z,101445.03
2023-01-29T20:29:55.899Z,101444.38
2023-01-29T20:32:22.616Z,101437.53
2023-01-29T20:34:51.930Z,101431.97
2023-01-29T20:37:19.852Z,101428.44
2023-01-29T20:39:47.274Z,101421.50
2023-01-29T20:42:14.202Z,101418.22
2023-01-29T20:44:41.195Z,101428.13
2023-01-29T20:47:08.373Z,101415.47
2023-01-29T20:49:35.443Z,101408.59
2023-01-29T20:52:01.952Z,101403.09
2023-01-29T20:54:29.845Z,101396.56
2023-01-29T20:56:57.119Z,101391.56
2023-01-29T20:59:24.103Z,101389.97
2023-01-29T21:01:50.848Z,101386.25
2023-01-29T21:04:17.449Z,101385.94
2023-01-29T21:06:44.248Z,101361.75
2023-01-29T21:09:10.814Z,101362.72
2023-01-29T21:11:37.326Z,101352.69
2023-01-29T21:14:04.371Z,101354.59
2023-01-29T21:16:32.224Z,101361.16
2023-01-29T21:18:59.718Z,101359.81
2023-01-29T21:21:26.883Z,101345.81
2023-01-29T21:23:53.533Z,101353.22
2023-01-29T21:26:20.615Z,101350.75
2023-01-29T21:28:47.108Z,101362.44
2023-01-29T21:31:16.149Z,101358.03
2023-01-29T21:33:44.330Z,101362.13
2023-01-29T21:36:11.757Z,101353.72
2023-01-29T21:38:38.823Z,101334.56
2023-01-29T21:41:08.602Z,101340.66
2023-01-29T21:43:35.572Z,101338.50
2023-01-29T21:46:11.402Z,101344.44
2023-01-29T21:48:39.281Z,101335.63
2023-01-29T21:51:06.778Z,101333.53
2023-01-29T21:53:33.802Z,101314.75
2023-01-29T21:56:01.204Z,101319.56
2023-01-29T21:58:28.270Z,101320.25
2023-01-29T22:00:54.725Z,101323.28
2023-01-29T22:03:21.565Z,101324.03
2023-01-29T22:05:49.952Z,101321.00
2023-01-29T22:08:17.779Z,101332.56
2023-01-29T22:10:44.294Z,101325.75
2023-01-29T22:13:11.263Z,101310.81
2023-01-29T22:15:38.217Z,101287.75
2023-01-29T22:18:04.906Z,101295.91
2023-01-29T22:20:31.569Z,101289.06
2023-01-29T22:23:00.151Z,101292.28
2023-01-29T22:25:27.518Z,101288.78
2023-01-29T22:27:54.376Z,101307.38
2023-01-29T22:30:23.102Z,101309.34
2023-01-29T22:32:50.424Z,101308.69
2023-01-29T22:35:17.401Z,101314.03
2023-01-29T22:37:44.990Z,101317.97
2023-01-29T22:40:11.845Z,101324.31
2023-01-29T22:42:38.574Z,101330.91
2023-01-29T22:45:05.785Z,101332.75
2023-01-29T22:47:33.564Z,101325.88
2023-01-29T22:50:00.361Z,101330.47
2023-01-29T22:52:27.860Z,101316.63
2023-01-29T22:54:54.283Z,101306.09
2023-01-29T22:57:20.860Z,101317.56
2023-01-29T22:59:47.499Z,101313.69
2023-01-29T23:02:14.209Z,101310.28
2023-01-29T23:04:41.468Z,101311.13
2023-01-29T23:07:07.940Z,101311.63
2023-01-29T23:09:34.517Z,101295.09
2023-01-29T23:12:01.308Z,101287.56
2023-01-29T23:14:28.158Z,101275.97
2023-01-29T23:16:55.129Z,101286.91
2023-01-29T23:19:21.832Z,101286.56
2023-01-29T23:21:48.548Z,101291.59
2023-01-29T23:24:15.581Z,101281.06
2023-01-29T23:27:00.817Z,101290.06
2023-01-29T23:29:27.588Z,101273.75
2023-01-29T23:31:54.195Z,101273.84
2023-01-29T23:34:22.055Z,101266.28
2023-01-29T23:36:48.581Z,101263.44
2023-01-29T23:39:15.393Z,101252.81
2023-01-29T23:41:42.039Z,101238.28
2023-01-29T23:44:08.515Z,101227.03
2023-01-29T23:46:35.352Z,101225.13
2023-01-29T23:49:01.989Z,101228.78
2023-01-29T23:51:29.012Z,101216.88
2023-01-29T23:53:56.343Z,101214.41
2023-01-29T23:56:23.048Z,101192.78
2023-01-29T23:58:54.765Z,101196.25
